sensor_id;sensor_type;location;lat;lon;timestamp;pressure;altitude;pressure_sealevel;temperature;humidity
61870;BME280;47810;42.264;23.826;2023-02-04T00:01:59;93561.84;;;1.86;61.06
61870;BME280;47810;42.264;23.826;2023-02-04T00:06:57;93548.50;;;1.72;60.41
61870;BME280;47810;42.264;23.826;2023-02-04T00:09:23;93558.63;;;1.56;62.04
61870;BME280;47810;42.264;23.826;2023-02-04T00:11:48;93554.59;;;1.47;61.34
61870;BME280;47810;42.264;23.826;2023-02-04T00:14:16;93554.78;;;1.41;62.10
61870;BME280;47810;42.264;23.826;2023-02-04T00:16:41;93529.31;;;1.51;63.08
61870;BME280;47810;42.264;23.826;2023-02-04T00:19:09;93527.56;;;1.51;63.74
61870;BME280;47810;42.264;23.826;2023-02-04T00:21:37;93505.63;;;1.58;65.43
61870;BME280;47810;42.264;23.826;2023-02-04T00:24:05;93503.47;;;1.46;64.71
61870;BME280;47810;42.264;23.826;2023-02-04T00:26:31;93516.16;;;1.55;65.26
61870;BME280;47810;42.264;23.826;2023-02-04T00:29:02;93509.47;;;1.48;65.75
61870;BME280;47810;42.264;23.826;2023-02-04T00:31:34;93507.00;;;1.45;66.34
61870;BME280;47810;42.264;23.826;2023-02-04T00:34:14;93505.63;;;1.58;66.94
61870;BME280;47810;42.264;23.826;2023-02-04T00:36:53;93491.59;;;1.62;65.31
61870;BME280;47810;42.264;23.826;2023-02-04T00:39:19;93499.06;;;1.72;65.95
61870;BME280;47810;42.264;23.826;2023-02-04T00:41:46;93492.16;;;1.71;66.15
61870;BME280;47810;42.264;23.826;2023-02-04T00:44:13;93492.28;;;1.68;65.24
61870;BME280;47810;42.264;23.826;2023-02-04T00:46:41;93477.34;;;1.73;66.24
61870;BME280;47810;42.264;23.826;2023-02-04T00:49:07;93482.25;;;1.57;66.72
61870;BME280;47810;42.264;23.826;2023-02-04T00:51:39;93486.72;;;1.53;67.65
61870;BME280;47810;42.264;23.826;2023-02-04T00:54:11;93467.38;;;1.60;67.49
61870;BME280;47810;42.264;23.826;2023-02-04T00:56:36;93479.84;;;1.52;67.18
61870;BME280;47810;42.264;23.826;2023-02-04T00:59:02;93444.56;;;1.45;68.87
61870;BME280;47810;42.264;23.826;2023-02-04T01:01:28;93476.53;;;1.47;69.27
61870;BME280;47810;42.264;23.826;2023-02-04T01:04:10;93477.56;;;1.20;70.16
61870;BME280;47810;42.264;23.826;2023-02-04T01:06:37;93452.13;;;1.51;70.89
61870;BME280;47810;42.264;23.826;2023-02-04T01:09:03;93472.03;;;1.52;69.95
61870;BME280;47810;42.264;23.826;2023-02-04T01:11:29;93449.75;;;1.45;69.95
61870;BME280;47810;42.264;23.826;2023-02-04T01:13:54;93459.66;;;1.59;69.67
61870;BME280;47810;42.264;23.826;2023-02-04T01:16:26;93442.84;;;1.68;69.72
61870;BME280;47810;42.264;23.826;2023-02-04T01:18:57;93435.09;;;1.66;69.13
61870;BME280;47810;42.264;23.826;2023-02-04T01:21:28;93425.63;;;1.63;68.59
61870;BME280;47810;42.264;23.826;2023-02-04T01:24:04;93428.44;;;1.81;68.04
61870;BME280;47810;42.264;23.826;2023-02-04T01:26:30;93413.38;;;1.67;68.17
61870;BME280;47810;42.264;23.826;2023-02-04T01:28:56;93404.34;;;1.76;68.32
61870;BME280;47810;42.264;23.826;2023-02-04T01:36:26;93394.69;;;1.57;67.44
61870;BME280;47810;42.264;23.826;2023-02-04T01:38:54;93397.56;;;1.72;67.86
61870;BME280;47810;42.264;23.826;2023-02-04T01:46:28;93384.69;;;1.69;66.78
61870;BME280;47810;42.264;23.826;2023-02-04T01:48:56;93376.75;;;1.72;66.52
61870;BME280;47810;42.264;23.826;2023-02-04T01:51:24;93407.22;;;1.46;66.94
61870;BME280;47810;42.264;23.826;2023-02-04T01:53:53;93383.63;;;1.51;67.55
61870;BME280;47810;42.264;23.826;2023-02-04T01:56:26;93381.00;;;1.74;67.15
61870;BME280;47810;42.264;23.826;2023-02-04T01:58:53;93373.25;;;1.73;66.86
61870;BME280;47810;42.264;23.826;2023-02-04T02:04:06;93380.16;;;1.74;66.99
61870;BME280;47810;42.264;23.826;2023-02-04T02:06:32;93380.41;;;1.68;68.12
61870;BME280;47810;42.264;23.826;2023-02-04T02:08:59;93383.16;;;1.63;68.10
61870;BME280;47810;42.264;23.826;2023-02-04T02:11:27;93367.25;;;1.71;68.60
61870;BME280;47810;42.264;23.826;2023-02-04T02:13:54;93381.59;;;1.59;68.62
61870;BME280;47810;42.264;23.826;2023-02-04T02:16:20;93368.38;;;1.63;69.19
61870;BME280;47810;42.264;23.826;2023-02-04T02:18:46;93383.50;;;1.54;69.31
61870;BME280;47810;42.264;23.826;2023-02-04T02:21:13;93343.53;;;2.21;64.43
61870;BME280;47810;42.264;23.826;2023-02-04T02:23:47;93348.97;;;2.96;60.39
61870;BME280;47810;42.264;23.826;2023-02-04T02:26:16;93324.72;;;3.70;57.46
61870;BME280;47810;42.264;23.826;2023-02-04T02:31:15;93328.00;;;4.10;55.42
61870;BME280;47810;42.264;23.826;2023-02-04T02:33:43;93322.41;;;4.17;54.98
61870;BME280;47810;42.264;23.826;2023-02-04T02:36:08;93322.31;;;4.19;55.02
61870;BME280;47810;42.264;23.826;2023-02-04T02:38:36;93335.38;;;4.36;54.49
61870;BME280;47810;42.264;23.826;2023-02-04T02:41:01;93300.66;;;4.34;54.35
61870;BME280;47810;42.264;23.826;2023-02-04T02:43:27;93293.56;;;4.36;54.39
61870;BME280;47810;42.264;23.826;2023-02-04T02:45:53;93277.22;;;4.33;54.84
61870;BME280;47810;42.264;23.826;2023-02-04T02:48:20;93286.13;;;4.29;54.80
61870;BME280;47810;42.264;23.826;2023-02-04T02:50:46;93287.13;;;4.26;54.93
61870;BME280;47810;42.264;23.826;2023-02-04T02:53:14;93298.94;;;4.33;54.47
61870;BME280;47810;42.264;23.826;2023-02-04T02:55:43;93307.72;;;4.32;54.67
61870;BME280;47810;42.264;23.826;2023-02-04T02:58:26;93300.41;;;4.39;55.23
61870;BME280;47810;42.264;23.826;2023-02-04T03:00:53;93298.56;;;4.24;55.52
61870;BME280;47810;42.264;23.826;2023-02-04T03:03:21;93290.38;;;4.31;55.33
61870;BME280;47810;42.264;23.826;2023-02-04T03:05:48;93279.16;;;4.12;56.26
61870;BME280;47810;42.264;23.826;2023-02-04T03:08:16;93288.50;;;4.16;55.97
61870;BME280;47810;42.264;23.826;2023-02-04T03:10:43;93290.81;;;4.22;55.80
61870;BME280;47810;42.264;23.826;2023-02-04T03:13:10;93280.91;;;4.29;55.16
61870;BME280;47810;42.264;23.826;2023-02-04T03:15:35;93280.19;;;4.42;55.37
61870;BME280;47810;42.264;23.826;2023-02-04T03:18:01;93271.13;;;4.32;54.84
61870;BME280;47810;42.264;23.826;2023-02-04T03:20:27;93248.25;;;4.37;54.56
61870;BME280;47810;42.264;23.826;2023-02-04T03:22:53;93249.94;;;4.38;55.01
61870;BME280;47810;42.264;23.826;2023-02-04T03:25:22;93264.28;;;4.47;54.22
61870;BME280;47810;42.264;23.826;2023-02-04T03:27:51;93245.38;;;4.42;55.05
61870;BME280;47810;42.264;23.826;2023-02-04T03:30:19;93233.41;;;4.38;54.27
61870;BME280;47810;42.264;23.826;2023-02-04T03:32:44;93237.31;;;4.47;53.49
61870;BME280;47810;42.264;23.826;2023-02-04T03:35:10;93245.06;;;4.48;53.34
61870;BME280;47810;42.264;23.826;2023-02-04T03:37:35;93244.84;;;4.53;53.08
61870;BME280;47810;42.264;23.826;2023-02-04T03:40:01;93240.56;;;4.34;53.71
61870;BME280;47810;42.264;23.826;2023-02-04T03:42:28;93249.94;;;4.38;53.13
61870;BME280;47810;42.264;23.826;2023-02-04T03:44:53;93249.94;;;4.38;53.40
61870;BME280;47810;42.264;23.826;2023-02-04T03:47:19;93272.81;;;4.33;53.72
61870;BME280;47810;42.264;23.826;2023-02-04T03:49:45;93261.53;;;4.33;54.52
61870;BME280;47810;42.264;23.826;2023-02-04T03:52:11;93286.28;;;4.26;55.46
61870;BME280;47810;42.264;23.826;2023-02-04T03:54:36;93291.88;;;4.01;58.97
61870;BME280;47810;42.264;23.826;2023-02-04T03:57:03;93293.13;;;3.57;60.44
61870;BME280;47810;42.264;23.826;2023-02-04T03:59:30;93278.56;;;2.96;62.77
61870;BME280;47810;42.264;23.826;2023-02-04T04:01:57;93267.72;;;3.61;57.46
61870;BME280;47810;42.264;23.826;2023-02-04T04:04:24;93261.31;;;3.85;56.77
61870;BME280;47810;42.264;23.826;2023-02-04T04:06:51;93263.16;;;4.01;55.27
61870;BME280;47810;42.264;23.826;2023-02-04T04:09:17;93261.75;;;4.11;55.15
61870;BME280;47810;42.264;23.826;2023-02-04T04:11:45;93254.72;;;4.13;54.81
61870;BME280;47810;42.264;23.826;2023-02-04T04:14:11;93254.41;;;4.19;54.66
61870;BME280;47810;42.264;23.826;2023-02-04T04:16:36;93241.19;;;4.22;55.30
61870;BME280;47810;42.264;23.826;2023-02-04T04:19:03;93243.03;;;4.37;54.02
61870;BME280;47810;42.264;23.826;2023-02-04T04:21:29;93237.00;;;4.35;54.70
61870;BME280;47810;42.264;23.826;2023-02-04T04:23:54;93231.34;;;4.27;54.72
61870;BME280;47810;42.264;23.826;2023-02-04T04:26:20;93227.03;;;4.26;54.78
61870;BME280;47810;42.264;23.826;2023-02-04T04:28:46;93232.25;;;4.26;54.17
61870;BME280;47810;42.264;23.826;2023-02-04T04:31:11;93216.22;;;4.16;54.33
61870;BME280;47810;42.264;23.826;2023-02-04T04:33:37;93217.97;;;4.16;54.38
61870;BME280;47810;42.264;23.826;2023-02-04T04:36:03;93223.19;;;4.16;55.22
61870;BME280;47810;42.264;23.826;2023-02-04T04:38:30;93208.47;;;4.15;54.18
61870;BME280;47810;42.264;23.826;2023-02-04T04:40:56;93196.16;;;4.17;54.67
61870;BME280;47810;42.264;23.826;2023-02-04T04:43:21;93208.16;;;4.04;54.83
61870;BME280;47810;42.264;23.826;2023-02-04T04:45:47;93201.78;;;4.09;55.26
61870;BME280;47810;42.264;23.826;2023-02-04T04:48:15;93202.41;;;3.97;55.29
61870;BME280;47810;42.264;23.826;2023-02-04T04:50:41;93194.03;;;4.08;55.35
61870;BME280;47810;42.264;23.826;2023-02-04T04:53:08;93209.47;;;3.95;55.17
61870;BME280;47810;42.264;23.826;2023-02-04T04:55:39;93200.84;;;4.28;53.96
61870;BME280;47810;42.264;23.826;2023-02-04T04:58:08;93198.75;;;4.17;53.62
61870;BME280;47810;42.264;23.826;2023-02-04T05:00:33;93197.03;;;4.33;53.69
61870;BME280;47810;42.264;23.826;2023-02-04T05:03:00;93202.00;;;4.22;53.99
61870;BME280;47810;42.264;23.826;2023-02-04T05:05:25;93205.38;;;4.24;53.75
61870;BME280;47810;42.264;23.826;2023-02-04T05:07:51;93207.53;;;4.16;54.10
61870;BME280;47810;42.264;23.826;2023-02-04T05:10:18;93201.69;;;4.28;53.98
61870;BME280;47810;42.264;23.826;2023-02-04T05:12:44;93195.00;;;4.23;53.20
61870;BME280;47810;42.264;23.826;2023-02-04T05:15:11;93217.03;;;4.17;53.73
61870;BME280;47810;42.264;23.826;2023-02-04T05:17:36;93215.53;;;4.30;53.05
61870;BME280;47810;42.264;23.826;2023-02-04T05:20:03;93240.19;;;4.25;53.72
61870;BME280;47810;42.264;23.826;2023-02-04T05:22:29;93224.25;;;4.29;53.34
61870;BME280;47810;42.264;23.826;2023-02-04T05:24:56;93237.19;;;4.15;54.20
61870;BME280;47810;42.264;23.826;2023-02-04T05:27:22;93219.44;;;4.04;54.47
61870;BME280;47810;42.264;23.826;2023-02-04T05:29:48;93224.75;;;4.03;55.21
61870;BME280;47810;42.264;23.826;2023-02-04T05:32:13;93216.91;;;4.03;55.27
61870;BME280;47810;42.264;23.826;2023-02-04T05:34:39;93215.44;;;3.97;55.67
61870;BME280;47810;42.264;23.826;2023-02-04T05:37:04;93221.69;;;4.12;54.40
61870;BME280;47810;42.264;23.826;2023-02-04T05:39:30;93211.06;;;4.15;54.17
61870;BME280;47810;42.264;23.826;2023-02-04T05:41:56;93214.28;;;4.20;54.50
61870;BME280;47810;42.264;23.826;2023-02-04T05:44:21;93230.25;;;4.14;55.29
61870;BME280;47810;42.264;23.826;2023-02-04T05:46:47;93219.38;;;4.06;55.19
61870;BME280;47810;42.264;23.826;2023-02-04T05:49:12;93220.06;;;4.09;54.82
61870;BME280;47810;42.264;23.826;2023-02-04T05:51:40;93227.59;;;4.15;55.01
61870;BME280;47810;42.264;23.826;2023-02-04T05:54:05;93233.88;;;3.94;56.42
61870;BME280;47810;42.264;23.826;2023-02-04T05:56:31;93224.78;;;3.85;56.76
61870;BME280;47810;42.264;23.826;2023-02-04T05:58:57;93233.81;;;3.78;57.48
61870;BME280;47810;42.264;23.826;2023-02-04T06:01:23;93239.81;;;3.80;58.12
61870;BME280;47810;42.264;23.826;2023-02-04T06:03:50;93248.63;;;3.60;59.67
61870;BME280;47810;42.264;23.826;2023-02-04T06:06:15;93262.06;;;3.70;59.75
61870;BME280;47810;42.264;23.826;2023-02-04T06:08:43;93263.94;;;3.49;63.38
61870;BME280;47810;42.264;23.826;2023-02-04T06:11:09;93277.38;;;3.22;65.16
61870;BME280;47810;42.264;23.826;2023-02-04T06:13:35;93287.94;;;3.00;66.80
61870;BME280;47810;42.264;23.826;2023-02-04T06:16:01;93295.69;;;2.83;68.37
61870;BME280;47810;42.264;23.826;2023-02-04T06:18:27;93305.91;;;2.48;69.51
61870;BME280;47810;42.264;23.826;2023-02-04T06:20:53;93311.88;;;2.71;69.03
61870;BME280;47810;42.264;23.826;2023-02-04T06:23:19;93306.28;;;2.39;70.18
61870;BME280;47810;42.264;23.826;2023-02-04T06:25:44;93307.97;;;2.40;70.78
61870;BME280;47810;42.264;23.826;2023-02-04T06:28:13;93311.63;;;2.36;71.10
61870;BME280;47810;42.264;23.826;2023-02-04T06:30:40;93319.31;;;2.19;72.04
61870;BME280;47810;42.264;23.826;2023-02-04T06:33:05;93316.66;;;2.20;72.84
61870;BME280;47810;42.264;23.826;2023-02-04T06:35:32;93327.81;;;2.02;73.70
61870;BME280;47810;42.264;23.826;2023-02-04T06:37:57;93329.72;;;1.76;74.85
61870;BME280;47810;42.264;23.826;2023-02-04T06:40:23;93335.00;;;1.75;75.16
61870;BME280;47810;42.264;23.826;2023-02-04T06:43:08;93339.22;;;1.99;74.19
61870;BME280;47810;42.264;23.826;2023-02-04T06:45:33;93337.50;;;1.98;74.20
61870;BME280;47810;42.264;23.826;2023-02-04T06:48:00;93327.84;;;2.22;72.73
61870;BME280;47810;42.264;23.826;2023-02-04T06:50:31;93342.41;;;2.47;70.84
61870;BME280;47810;42.264;23.826;2023-02-04T06:52:57;93337.28;;;2.66;69.40
61870;BME280;47810;42.264;23.826;2023-02-04T06:55:25;93340.28;;;2.56;69.12
61870;BME280;47810;42.264;23.826;2023-02-04T06:57:50;93334.41;;;2.72;68.07
61870;BME280;47810;42.264;23.826;2023-02-04T07:00:16;93331.81;;;2.51;68.01
61870;BME280;47810;42.264;23.826;2023-02-04T07:02:42;93336.50;;;2.64;66.70
61870;BME280;47810;42.264;23.826;2023-02-04T07:05:10;93325.53;;;2.76;65.03
61870;BME280;47810;42.264;23.826;2023-02-04T07:07:36;93325.25;;;2.82;62.26
61870;BME280;47810;42.264;23.826;2023-02-04T07:10:01;93334.72;;;2.85;61.53
61870;BME280;47810;42.264;23.826;2023-02-04T07:12:27;93339.31;;;2.79;60.14
61870;BME280;47810;42.264;23.826;2023-02-04T07:14:52;93305.31;;;2.81;58.76
61870;BME280;47810;42.264;23.826;2023-02-04T07:17:18;93336.69;;;2.79;58.31
61870;BME280;47810;42.264;23.826;2023-02-04T07:19:44;93341.16;;;2.96;58.37
61870;BME280;47810;42.264;23.826;2023-02-04T07:22:11;93334.84;;;2.82;58.08
61870;BME280;47810;42.264;23.826;2023-02-04T07:24:37;93334.13;;;2.78;58.74
61870;BME280;47810;42.264;23.826;2023-02-04T07:27:05;93319.91;;;2.85;58.50
61870;BME280;47810;42.264;23.826;2023-02-04T07:29:31;93327.88;;;2.82;57.98
61870;BME280;47810;42.264;23.826;2023-02-04T07:31:58;93316.41;;;2.86;59.05
61870;BME280;47810;42.264;23.826;2023-02-04T07:34:37;93325.91;;;2.87;58.30
61870;BME280;47810;42.264;23.826;2023-02-04T07:37:37;93310.78;;;2.95;58.36
61870;BME280;47810;42.264;23.826;2023-02-04T07:40:05;93324.28;;;2.85;57.75
61870;BME280;47810;42.264;23.826;2023-02-04T07:42:30;93330.78;;;2.95;58.00
61870;BME280;47810;42.264;23.826;2023-02-04T07:44:56;93302.78;;;2.98;57.61
61870;BME280;47810;42.264;23.826;2023-02-04T07:47:28;93324.16;;;3.07;57.61
61870;BME280;47810;42.264;23.826;2023-02-04T07:49:53;93301.06;;;3.18;56.13
61870;BME280;47810;42.264;23.826;2023-02-04T07:52:24;93285.09;;;3.24;56.83
61870;BME280;47810;42.264;23.826;2023-02-04T07:54:51;93274.38;;;3.30;55.70
61870;BME280;47810;42.264;23.826;2023-02-04T07:57:17;93278.28;;;3.40;55.55
61870;BME280;47810;42.264;23.826;2023-02-04T07:59:45;93297.59;;;3.36;55.51
61870;BME280;47810;42.264;23.826;2023-02-04T08:02:10;93281.03;;;3.37;55.33
61870;BME280;47810;42.264;23.826;2023-02-04T08:04:36;93288.38;;;3.29;54.58
61870;BME280;47810;42.264;23.826;2023-02-04T08:07:08;93287.66;;;3.44;55.34
61870;BME280;47810;42.264;23.826;2023-02-04T08:09:36;93285.66;;;3.49;54.80
61870;BME280;47810;42.264;23.826;2023-02-04T08:12:03;93279.66;;;3.66;54.24
61870;BME280;47810;42.264;23.826;2023-02-04T08:14:29;93290.44;;;3.59;55.21
61870;BME280;47810;42.264;23.826;2023-02-04T08:16:55;93272.66;;;3.67;54.26
61870;BME280;47810;42.264;23.826;2023-02-04T08:19:21;93261.47;;;3.82;53.48
61870;BME280;47810;42.264;23.826;2023-02-04T08:21:47;93257.78;;;3.86;53.19
61870;BME280;47810;42.264;23.826;2023-02-04T08:24:13;93256.56;;;3.93;51.89
61870;BME280;47810;42.264;23.826;2023-02-04T08:26:39;93278.66;;;4.04;52.22
61870;BME280;47810;42.264;23.826;2023-02-04T08:29:05;93259.63;;;4.02;52.33
61870;BME280;47810;42.264;23.826;2023-02-04T08:31:32;93256.72;;;4.08;52.64
61870;BME280;47810;42.264;23.826;2023-02-04T08:33:58;93276.28;;;4.16;51.72
61870;BME280;47810;42.264;23.826;2023-02-04T08:36:24;93268.69;;;4.12;51.57
61870;BME280;47810;42.264;23.826;2023-02-04T08:38:49;93258.63;;;4.22;50.98
61870;BME280;47810;42.264;23.826;2023-02-04T08:41:15;93272.38;;;4.25;50.41
61870;BME280;47810;42.264;23.826;2023-02-04T08:43:40;93274.84;;;4.28;50.46
61870;BME280;47810;42.264;23.826;2023-02-04T08:46:06;93274.53;;;4.34;51.81
61870;BME280;47810;42.264;23.826;2023-02-04T08:48:33;93311.56;;;4.25;49.97
61870;BME280;47810;42.264;23.826;2023-02-04T08:51:00;93275.00;;;4.25;50.74
61870;BME280;47810;42.264;23.826;2023-02-04T08:53:26;93277.91;;;4.36;52.03
61870;BME280;47810;42.264;23.826;2023-02-04T08:55:52;93289.06;;;4.40;50.77
61870;BME280;47810;42.264;23.826;2023-02-04T08:58:19;93284.38;;;4.29;50.98
61870;BME280;47810;42.264;23.826;2023-02-04T09:00:45;93285.53;;;4.41;51.23
61870;BME280;47810;42.264;23.826;2023-02-04T09:03:11;93306.19;;;4.28;50.60
61870;BME280;47810;42.264;23.826;2023-02-04T09:05:36;93288.47;;;4.17;51.99
61870;BME280;47810;42.264;23.826;2023-02-04T09:08:02;93273.53;;;4.19;52.16
61870;BME280;47810;42.264;23.826;2023-02-04T09:10:27;93287.44;;;4.20;51.71
61870;BME280;47810;42.264;23.826;2023-02-04T09:12:53;93276.38;;;4.32;51.01
61870;BME280;47810;42.264;23.826;2023-02-04T09:15:22;93296.75;;;4.26;51.35
61870;BME280;47810;42.264;23.826;2023-02-04T09:17:48;93287.75;;;4.14;52.12
61870;BME280;47810;42.264;23.826;2023-02-04T09:20:14;93266.84;;;4.31;51.66
61870;BME280;47810;42.264;23.826;2023-02-04T09:22:39;93265.28;;;4.44;50.14
61870;BME280;47810;42.264;23.826;2023-02-04T09:25:05;93281.59;;;4.50;50.77
61870;BME280;47810;42.264;23.826;2023-02-04T09:27:31;93271.72;;;4.55;49.81
61870;BME280;47810;42.264;23.826;2023-02-04T09:29:56;93247.84;;;4.78;49.67
61870;BME280;47810;42.264;23.826;2023-02-04T09:32:22;93251.69;;;4.71;50.05
61870;BME280;47810;42.264;23.826;2023-02-04T09:34:48;93261.69;;;4.80;48.61
61870;BME280;47810;42.264;23.826;2023-02-04T09:37:14;93239.97;;;5.11;50.41
61870;BME280;47810;42.264;23.826;2023-02-04T09:39:40;93254.22;;;5.22;48.55
61870;BME280;47810;42.264;23.826;2023-02-04T09:42:05;93240.97;;;5.41;48.52
61870;BME280;47810;42.264;23.826;2023-02-04T09:44:31;93232.69;;;5.64;48.28
61870;BME280;47810;42.264;23.826;2023-02-04T09:46:57;93237.00;;;5.65;49.04
61870;BME280;47810;42.264;23.826;2023-02-04T09:49:23;93245.94;;;5.29;48.62
61870;BME280;47810;42.264;23.826;2023-02-04T09:51:49;93235.88;;;4.90;50.57
61870;BME280;47810;42.264;23.826;2023-02-04T09:54:16;93234.38;;;5.02;49.45
61870;BME280;47810;42.264;23.826;2023-02-04T09:56:42;93233.19;;;4.92;50.23
61870;BME280;47810;42.264;23.826;2023-02-04T09:59:12;93227.41;;;5.18;51.01
61870;BME280;47810;42.264;23.826;2023-02-04T10:01:38;93223.25;;;4.98;50.80
61870;BME280;47810;42.264;23.826;2023-02-04T10:04:05;93239.91;;;4.80;51.14
61870;BME280;47810;42.264;23.826;2023-02-04T10:06:34;93224.91;;;4.83;52.40
61870;BME280;47810;42.264;23.826;2023-02-04T10:08:59;93220.97;;;4.92;50.99
61870;BME280;47810;42.264;23.826;2023-02-04T10:11:25;93232.69;;;5.01;51.48
61870;BME280;47810;42.264;23.826;2023-02-04T10:13:52;93220.13;;;4.92;53.52
61870;BME280;47810;42.264;23.826;2023-02-04T10:16:20;93209.91;;;5.03;53.60
61870;BME280;47810;42.264;23.826;2023-02-04T10:18:47;93228.66;;;5.11;51.80
61870;BME280;47810;42.264;23.826;2023-02-04T10:21:15;93218.84;;;4.83;52.67
61870;BME280;47810;42.264;23.826;2023-02-04T10:23:42;93221.41;;;4.67;53.12
61870;BME280;47810;42.264;23.826;2023-02-04T10:26:13;93209.72;;;4.74;53.24
61870;BME280;47810;42.264;23.826;2023-02-04T10:28:39;93203.31;;;4.96;54.69
61870;BME280;47810;42.264;23.826;2023-02-04T10:31:05;93203.97;;;4.83;53.94
61870;BME280;47810;42.264;23.826;2023-02-04T10:33:32;93195.38;;;4.97;54.61
61870;BME280;47810;42.264;23.826;2023-02-04T10:35:59;93187.81;;;4.93;53.73
61870;BME280;47810;42.264;23.826;2023-02-04T10:38:26;93195.56;;;5.10;53.92
61870;BME280;47810;42.264;23.826;2023-02-04T10:41:01;93187.59;;;4.64;51.89
61870;BME280;47810;42.264;23.826;2023-02-04T10:43:27;93182.28;;;4.81;52.05
61870;BME280;47810;42.264;23.826;2023-02-04T10:45:56;93182.72;;;4.74;53.07
61870;BME280;47810;42.264;23.826;2023-02-04T10:48:23;93178.00;;;4.80;52.93
61870;BME280;47810;42.264;23.826;2023-02-04T10:50:48;93177.84;;;4.83;53.15
61870;BME280;47810;42.264;23.826;2023-02-04T10:53:17;93178.84;;;4.81;53.21
61870;BME280;47810;42.264;23.826;2023-02-04T10:56:01;93169.56;;;4.75;52.81
61870;BME280;47810;42.264;23.826;2023-02-04T10:58:29;93181.22;;;4.85;53.16
61870;BME280;47810;42.264;23.826;2023-02-04T11:00:55;93183.06;;;4.83;54.32
61870;BME280;47810;42.264;23.826;2023-02-04T11:03:22;93189.59;;;4.59;54.79
61870;BME280;47810;42.264;23.826;2023-02-04T11:05:48;93185.53;;;4.37;55.96
61870;BME280;47810;42.264;23.826;2023-02-04T11:08:24;93202.56;;;4.44;56.38
61870;BME280;47810;42.264;23.826;2023-02-04T11:11:03;93162.91;;;4.36;58.07
61870;BME280;47810;42.264;23.826;2023-02-04T11:13:42;93190.19;;;4.48;58.85
61870;BME280;47810;42.264;23.826;2023-02-04T11:21:22;93166.19;;;4.07;60.89
61870;BME280;47810;42.264;23.826;2023-02-04T11:23:48;93162.66;;;4.25;59.29
61870;BME280;47810;42.264;23.826;2023-02-04T11:26:15;93168.84;;;4.40;60.98
61870;BME280;47810;42.264;23.826;2023-02-04T11:33:48;93147.03;;;4.57;58.60
61870;BME280;47810;42.264;23.826;2023-02-04T11:36:14;93157.38;;;4.58;59.30
61870;BME280;47810;42.264;23.826;2023-02-04T11:38:47;93161.22;;;4.35;59.10
61870;BME280;47810;42.264;23.826;2023-02-04T11:41:28;93151.16;;;3.94;62.29
61870;BME280;47810;42.264;23.826;2023-02-04T11:43:55;93162.47;;;3.95;62.04
61870;BME280;47810;42.264;23.826;2023-02-04T11:46:21;93159.09;;;4.26;64.66
61870;BME280;47810;42.264;23.826;2023-02-04T11:48:51;93140.81;;;4.26;63.91
61870;BME280;47810;42.264;23.826;2023-02-04T11:51:20;93148.13;;;4.53;63.81
61870;BME280;47810;42.264;23.826;2023-02-04T11:53:50;93145.78;;;3.97;66.47
61870;BME280;47810;42.264;23.826;2023-02-04T11:56:18;93141.28;;;4.17;65.82
61870;BME280;47810;42.264;23.826;2023-02-04T11:58:45;93130.19;;;4.29;66.35
61870;BME280;47810;42.264;23.826;2023-02-04T12:01:19;93115.38;;;4.46;64.18
61870;BME280;47810;42.264;23.826;2023-02-04T12:03:50;93129.00;;;4.19;66.49
61870;BME280;47810;42.264;23.826;2023-02-04T12:06:20;93121.25;;;4.33;65.88
61870;BME280;47810;42.264;23.826;2023-02-04T12:08:46;93106.94;;;4.25;65.32
61870;BME280;47810;42.264;23.826;2023-02-04T12:11:23;93115.88;;;4.36;66.15
61870;BME280;47810;42.264;23.826;2023-02-04T12:13:53;93115.06;;;4.52;67.00
61870;BME280;47810;42.264;23.826;2023-02-04T12:16:20;93116.47;;;3.92;68.42
61870;BME280;47810;42.264;23.826;2023-02-04T12:18:46;93122.00;;;3.86;71.54
61870;BME280;47810;42.264;23.826;2023-02-04T12:21:12;93118.34;;;3.73;70.89
61870;BME280;47810;42.264;23.826;2023-02-04T12:23:38;93120.47;;;3.82;70.76
61870;BME280;47810;42.264;23.826;2023-02-04T12:26:04;93119.75;;;3.79;72.29
61870;BME280;47810;42.264;23.826;2023-02-04T12:28:29;93128.59;;;3.93;72.15
61870;BME280;47810;42.264;23.826;2023-02-04T12:30:55;93133.59;;;3.81;71.33
61870;BME280;47810;42.264;23.826;2023-02-04T12:33:21;93134.16;;;3.70;72.42
61870;BME280;47810;42.264;23.826;2023-02-04T12:35:49;93135.81;;;3.36;72.10
61870;BME280;47810;42.264;23.826;2023-02-04T12:38:15;93141.81;;;3.38;72.08
61870;BME280;47810;42.264;23.826;2023-02-04T12:40:40;93148.88;;;3.36;72.06
61870;BME280;47810;42.264;23.826;2023-02-04T12:43:06;93154.03;;;3.55;72.37
61870;BME280;47810;42.264;23.826;2023-02-04T12:45:32;93164.03;;;3.47;71.32
61870;BME280;47810;42.264;23.826;2023-02-04T12:47:57;93149.78;;;3.35;72.82
61870;BME280;47810;42.264;23.826;2023-02-04T12:50:23;93149.66;;;3.38;72.43
61870;BME280;47810;42.264;23.826;2023-02-04T12:52:51;93146.59;;;3.47;72.10
61870;BME280;47810;42.264;23.826;2023-02-04T12:55:17;93145.81;;;3.28;69.09
61870;BME280;47810;42.264;23.826;2023-02-04T12:57:43;93144.28;;;3.59;67.32
61870;BME280;47810;42.264;23.826;2023-02-04T13:00:09;93128.22;;;3.84;67.08
61870;BME280;47810;42.264;23.826;2023-02-04T13:02:35;93133.81;;;3.93;65.29
61870;BME280;47810;42.264;23.826;2023-02-04T13:05:00;93139.13;;;3.74;64.91
61870;BME280;47810;42.264;23.826;2023-02-04T13:07:26;93132.13;;;3.92;64.95
61870;BME280;47810;42.264;23.826;2023-02-04T13:09:51;93143.00;;;4.01;66.13
61870;BME280;47810;42.264;23.826;2023-02-04T13:12:17;93138.28;;;3.74;66.56
61870;BME280;47810;42.264;23.826;2023-02-04T13:14:43;93135.75;;;3.38;66.60
61870;BME280;47810;42.264;23.826;2023-02-04T13:17:08;93144.28;;;3.59;67.21
61870;BME280;47810;42.264;23.826;2023-02-04T13:19:35;93140.44;;;3.66;68.20
61870;BME280;47810;42.264;23.826;2023-02-04T13:22:01;93142.13;;;3.67;68.37
61870;BME280;47810;42.264;23.826;2023-02-04T13:24:27;93131.84;;;3.29;70.16
61870;BME280;47810;42.264;23.826;2023-02-04T13:26:52;93134.94;;;3.37;69.70
61870;BME280;47810;42.264;23.826;2023-02-04T13:29:18;93146.16;;;3.03;70.43